createdAt,value
2023-04-19T00:00:58.654Z,6.11
2023-04-19T00:01:59.621Z,6.08
2023-04-19T00:03:00.173Z,6.06
2023-04-19T00:04:00.871Z,6.03
2023-04-19T00:05:01.454Z,6.03
2023-04-19T00:06:01.858Z,6.00
2023-04-19T00:07:02.728Z,5.99
2023-04-19T00:08:03.613Z,5.97
2023-04-19T00:09:04.494Z,5.97
2023-04-19T00:10:05.392Z,5.94
2023-04-19T00:11:06.261Z,5.93
2023-04-19T00:12:07.174Z,5.89
2023-04-19T00:13:08.046Z,5.89
2023-04-19T00:14:08.930Z,5.85
2023-04-19T00:15:09.817Z,5.82
2023-04-19T00:16:10.737Z,5.82
2023-04-19T00:17:11.721Z,5.78
2023-04-19T00:18:12.114Z,5.75
2023-04-19T00:19:12.986Z,5.72
2023-04-19T00:20:13.866Z,5.72
2023-04-19T00:21:14.742Z,5.68
2023-04-19T00:22:15.666Z,5.61
2023-04-19T00:23:16.520Z,5.63
2023-04-19T00:24:17.403Z,5.58
2023-04-19T00:25:18.309Z,5.57
2023-04-19T00:26:19.168Z,5.56
2023-04-19T00:27:20.216Z,5.53
2023-04-19T00:28:20.654Z,5.51
2023-04-19T00:29:21.501Z,5.48
2023-04-19T00:30:22.376Z,5.48
2023-04-19T00:31:23.330Z,5.48
2023-04-19T00:32:24.236Z,5.48
2023-04-19T00:33:25.107Z,5.43
2023-04-19T00:34:25.963Z,5.42
2023-04-19T00:35:26.856Z,5.38
2023-04-19T00:36:27.737Z,5.38
2023-04-19T00:37:28.621Z,5.35
2023-04-19T00:38:29.509Z,5.35
2023-04-19T00:39:30.381Z,5.30
2023-04-19T00:40:31.283Z,5.28
2023-04-19T00:41:32.196Z,5.27
2023-04-19T00:42:33.054Z,5.27
2023-04-19T00:43:33.927Z,5.25
2023-04-19T00:44:34.835Z,5.25
2023-04-19T00:45:35.690Z,5.24
2023-04-19T00:46:36.758Z,5.20
2023-04-19T00:47:37.208Z,5.20
2023-04-19T00:48:38.047Z,5.20
2023-04-19T00:49:38.954Z,5.17
2023-04-19T00:50:39.827Z,5.17
2023-04-19T00:51:40.738Z,5.15
2023-04-19T00:52:41.609Z,5.10
2023-04-19T00:53:42.480Z,5.12
2023-04-19T00:54:43.371Z,5.12
2023-04-19T00:55:44.270Z,5.10
2023-04-19T00:56:45.123Z,5.09
2023-04-19T00:57:46.024Z,5.06
2023-04-19T00:58:46.885Z,5.04
2023-04-19T00:59:47.792Z,5.02
2023-04-19T01:00:48.650Z,5.00
2023-04-19T01:01:49.584Z,4.97
2023-04-19T01:02:50.541Z,4.97
2023-04-19T01:03:51.050Z,4.96
2023-04-19T01:04:51.910Z,4.94
2023-04-19T01:05:52.817Z,4.94
2023-04-19T01:06:53.667Z,4.91
2023-04-19T01:07:54.575Z,4.89
2023-04-19T01:08:55.434Z,4.86
2023-04-19T01:09:56.317Z,4.86
2023-04-19T01:10:57.217Z,4.85
2023-04-19T01:11:58.136Z,4.82
2023-04-19T01:12:58.986Z,4.82
2023-04-19T01:13:59.890Z,4.84
2023-04-19T01:15:00.756Z,4.85
2023-04-19T01:16:01.665Z,4.82
2023-04-19T01:17:02.507Z,4.84
2023-04-19T01:18:03.479Z,4.82
2023-04-19T01:19:04.336Z,4.77
2023-04-19T01:20:05.205Z,4.77
2023-04-19T01:21:06.079Z,4.75
2023-04-19T01:22:06.986Z,4.73
2023-04-19T01:23:07.857Z,4.72
2023-04-19T01:24:08.746Z,4.72
2023-04-19T01:25:09.625Z,4.69
2023-04-19T01:26:10.594Z,4.70
2023-04-19T01:27:11.460Z,4.70
2023-04-19T01:28:12.353Z,4.67
2023-04-19T01:29:13.255Z,4.67
2023-04-19T01:30:14.154Z,4.66
2023-04-19T01:31:15.097Z,4.65
2023-04-19T01:32:15.955Z,4.65
2023-04-19T01:33:16.860Z,4.65
2023-04-19T01:34:17.729Z,4.63
2023-04-19T01:35:18.604Z,4.65
2023-04-19T01:36:19.492Z,4.63
2023-04-19T01:37:20.390Z,4.65
2023-04-19T01:38:21.287Z,4.63
2023-04-19T01:39:22.143Z,4.60
2023-04-19T01:40:23.024Z,4.59
2023-04-19T01:41:23.949Z,4.59
2023-04-19T01:42:24.783Z,4.59
2023-04-19T01:43:25.668Z,4.60
2023-04-19T01:44:26.555Z,4.58
2023-04-19T01:45:27.426Z,4.58
2023-04-19T01:46:28.373Z,4.58
2023-04-19T01:47:29.210Z,4.62
2023-04-19T01:48:30.076Z,4.59
2023-04-19T01:49:30.954Z,4.60
2023-04-19T01:50:31.880Z,4.60
2023-04-19T01:51:32.722Z,4.58
2023-04-19T01:52:33.630Z,4.58
2023-04-19T01:53:34.507Z,4.59
2023-04-19T01:54:35.390Z,4.60
2023-04-19T01:55:36.277Z,4.59
2023-04-19T01:56:37.178Z,4.58
2023-04-19T01:57:38.047Z,4.58
2023-04-19T01:58:38.932Z,4.55
2023-04-19T01:59:39.803Z,4.54
2023-04-19T02:00:40.726Z,4.54
2023-04-19T02:01:41.583Z,4.54
2023-04-19T02:02:42.588Z,4.54
2023-04-19T02:03:43.463Z,4.54
2023-04-19T02:04:43.939Z,4.52
2023-04-19T02:05:44.799Z,4.52
2023-04-19T02:06:45.680Z,4.55
2023-04-19T02:07:46.580Z,4.54
2023-04-19T02:08:47.453Z,4.55
2023-04-19T02:09:48.353Z,4.55
2023-04-19T02:10:49.232Z,4.55
2023-04-19T02:11:50.141Z,4.54
2023-04-19T02:12:50.995Z,4.54
2023-04-19T02:13:51.891Z,4.52
2023-04-19T02:14:52.783Z,4.51
2023-04-19T02:15:53.651Z,4.52
2023-04-19T02:16:54.560Z,4.51
2023-04-19T02:17:55.487Z,4.51
2023-04-19T02:18:56.370Z,4.50
2023-04-19T02:19:57.257Z,4.48
2023-04-19T02:20:58.151Z,4.50
2023-04-19T02:21:59.023Z,4.47
2023-04-19T02:22:59.908Z,4.48
2023-04-19T02:24:00.791Z,4.47
2023-04-19T02:25:01.781Z,4.47
2023-04-19T02:26:02.211Z,4.45
2023-04-19T02:27:03.140Z,4.44
2023-04-19T02:28:03.996Z,4.44
2023-04-19T02:29:06.800Z,4.47
2023-04-19T02:30:05.406Z,4.45
2023-04-19T02:31:06.298Z,4.42
2023-04-19T02:32:07.201Z,4.45
2023-04-19T02:33:08.083Z,4.47
2023-04-19T02:34:09.015Z,4.48
2023-04-19T02:35:09.869Z,4.47
2023-04-19T02:36:10.753Z,4.50
2023-04-19T02:37:11.634Z,4.50
2023-04-19T02:38:12.532Z,4.48
2023-04-19T02:39:13.406Z,4.45
2023-04-19T02:40:14.296Z,4.48
2023-04-19T02:41:15.186Z,4.48
2023-04-19T02:42:16.088Z,4.50
2023-04-19T02:43:16.978Z,4.48
2023-04-19T02:44:18.016Z,4.50
2023-04-19T02:45:18.466Z,4.48
2023-04-19T02:46:19.383Z,4.48
2023-04-19T02:47:20.226Z,4.48
2023-04-19T02:48:21.114Z,4.48
2023-04-19T02:49:21.997Z,4.45
2023-04-19T02:50:22.878Z,4.50
2023-04-19T02:51:23.787Z,4.47
2023-04-19T02:52:24.650Z,4.48
2023-04-19T02:53:25.556Z,4.47
2023-04-19T02:54:26.422Z,4.48
2023-04-19T02:55:27.313Z,4.48
2023-04-19T02:56:28.190Z,4.48
2023-04-19T02:57:29.090Z,4.51
2023-04-19T02:58:29.961Z,4.48
2023-04-19T02:59:30.842Z,4.50
2023-04-19T03:00:31.717Z,4.50
2023-04-19T03:01:32.638Z,4.48
2023-04-19T03:02:33.726Z,4.51
2023-04-19T03:03:34.249Z,4.50
2023-04-19T03:04:35.216Z,4.52
2023-04-19T03:05:36.100Z,4.51
2023-04-19T03:06:36.944Z,4.52
2023-04-19T03:07:37.830Z,4.52
2023-04-19T03:08:38.717Z,4.51
2023-04-19T03:09:39.603Z,4.52
2023-04-19T03:10:40.467Z,4.51
2023-04-19T03:11:41.375Z,4.54
2023-04-19T03:12:42.261Z,4.52
2023-04-19T03:13:43.120Z,4.55
2023-04-19T03:14:44.005Z,4.55
2023-04-19T03:15:44.954Z,4.52
2023-04-19T03:16:45.833Z,4.52
2023-04-19T03:17:46.773Z,4.54
2023-04-19T03:18:49.354Z,4.54
2023-04-19T03:19:48.466Z,4.54
2023-04-19T03:20:49.345Z,4.54
2023-04-19T03:21:50.249Z,4.52
2023-04-19T03:22:51.103Z,4.52
2023-04-19T03:23:52.005Z,4.54
2023-04-19T03:24:52.880Z,4.54
2023-04-19T03:25:53.756Z,4.55
2023-04-19T03:26:54.649Z,4.55
2023-04-19T03:27:55.543Z,4.58
2023-04-19T03:28:56.442Z,4.59
2023-04-19T03:29:57.337Z,4.60
2023-04-19T03:30:58.194Z,4.59
2023-04-19T03:31:59.065Z,4.60
2023-04-19T03:32:59.979Z,4.63
2023-04-19T03:34:00.869Z,4.60
2023-04-19T03:35:01.754Z,4.60
2023-04-19T03:36:02.642Z,4.60
2023-04-19T03:37:03.513Z,4.60
2023-04-19T03:38:04.393Z,4.62
2023-04-19T03:39:05.281Z,4.60
2023-04-19T03:40:06.159Z,4.63
2023-04-19T03:41:07.038Z,4.60
2023-04-19T03:42:07.922Z,4.62
2023-04-19T03:43:08.896Z,4.60
2023-04-19T03:44:09.741Z,4.62
2023-04-19T03:45:10.606Z,4.62
2023-04-19T03:46:11.526Z,4.59
2023-04-19T03:47:12.429Z,4.59
2023-04-19T03:48:13.308Z,4.58
2023-04-19T03:49:14.197Z,4.58
2023-04-19T03:50:15.073Z,4.55
2023-04-19T03:51:15.972Z,4.55
2023-04-19T03:52:16.854Z,4.52
2023-04-19T03:53:17.721Z,4.51
2023-04-19T03:54:18.614Z,4.52
2023-04-19T03:55:19.507Z,4.51
2023-04-19T03:56:20.375Z,4.52
2023-04-19T03:57:21.253Z,4.50
2023-04-19T03:58:22.157Z,4.51
2023-04-19T03:59:23.030Z,4.54
2023-04-19T04:00:23.943Z,4.52
2023-04-19T04:01:24.799Z,4.51
2023-04-19T04:02:25.753Z,4.52
2023-04-19T04:03:26.540Z,4.54
2023-04-19T04:04:27.323Z,4.54
2023-04-19T04:05:27.847Z,4.54
2023-04-19T04:06:28.760Z,4.54
2023-04-19T04:07:29.621Z,4.55
2023-04-19T04:08:30.462Z,4.55
2023-04-19T04:09:31.293Z,4.54
2023-04-19T04:10:32.181Z,4.52
2023-04-19T04:11:33.074Z,4.54
2023-04-19T04:12:33.946Z,4.51
2023-04-19T04:13:34.893Z,4.52
2023-04-19T04:14:35.703Z,4.50
2023-04-19T04:15:36.511Z,4.51
2023-04-19T04:16:37.461Z,4.50
2023-04-19T04:17:38.312Z,4.48
2023-04-19T04:18:39.105Z,4.50
2023-04-19T04:19:39.989Z,4.50
2023-04-19T04:20:40.887Z,4.47
2023-04-19T04:21:41.713Z,4.47
2023-04-19T04:22:42.554Z,4.45
2023-04-19T04:23:43.370Z,4.44
2023-04-19T04:24:44.203Z,4.45
2023-04-19T04:25:45.037Z,4.45
2023-04-19T04:26:45.860Z,4.44
2023-04-19T04:27:46.676Z,4.45
2023-04-19T04:28:47.656Z,4.47
2023-04-19T04:29:48.462Z,4.45
2023-04-19T04:30:49.267Z,4.47
2023-04-19T04:31:50.196Z,4.47
2023-04-19T04:32:51.155Z,4.47
2023-04-19T04:33:52.040Z,4.47
2023-04-19T04:34:52.907Z,4.48
2023-04-19T04:35:53.712Z,4.48
2023-04-19T04:36:54.534Z,4.50
2023-04-19T04:37:55.368Z,4.52
2023-04-19T04:38:56.193Z,4.51
2023-04-19T04:39:57.041Z,4.52
2023-04-19T04:40:57.857Z,4.52
2023-04-19T04:41:58.703Z,4.52
2023-04-19T04:42:59.518Z,4.52
2023-04-19T04:44:12.210Z,4.52
2023-04-19T04:45:02.164Z,4.51
2023-04-19T04:46:02.102Z,4.52
2023-04-19T04:47:02.929Z,4.52
2023-04-19T04:48:03.893Z,4.51
2023-04-19T04:49:04.689Z,4.50
2023-04-19T04:50:05.561Z,4.50
2023-04-19T04:51:06.342Z,4.50
2023-04-19T04:52:07.169Z,4.51
2023-04-19T04:53:07.990Z,4.52
2023-04-19T04:54:08.851Z,4.48
2023-04-19T04:55:09.677Z,4.51
2023-04-19T04:56:10.495Z,4.51
2023-04-19T04:57:11.316Z,4.50
2023-04-19T04:58:12.150Z,4.51
2023-04-19T04:59:13.074Z,4.48
2023-04-19T05:00:13.854Z,4.48
2023-04-19T05:01:14.687Z,4.47
2023-04-19T05:02:15.597Z,4.47
2023-04-19T05:03:16.322Z,4.45
2023-04-19T05:04:17.371Z,4.45
2023-04-19T05:05:17.943Z,4.45
2023-04-19T05:06:18.766Z,4.45
2023-04-19T05:07:19.647Z,4.47
2023-04-19T05:08:20.428Z,4.47
2023-04-19T05:09:21.272Z,4.47
2023-04-19T05:10:22.107Z,4.50
2023-04-19T05:11:22.917Z,4.50
2023-04-19T05:12:23.759Z,4.51
2023-04-19T05:13:24.586Z,4.51
2023-04-19T05:14:25.435Z,4.54
2023-04-19T05:15:26.254Z,4.52
2023-04-19T05:16:27.150Z,4.58
2023-04-19T05:17:27.953Z,4.58
2023-04-19T05:18:28.767Z,4.59
2023-04-19T05:19:29.606Z,4.60
2023-04-19T05:20:30.430Z,4.63
2023-04-19T05:21:31.270Z,4.63
2023-04-19T05:22:32.103Z,4.65
2023-04-19T05:23:32.916Z,4.66
2023-04-19T05:24:33.741Z,4.66
2023-04-19T05:25:34.576Z,4.66
2023-04-19T05:26:35.402Z,4.67
2023-04-19T05:27:36.312Z,4.69
2023-04-19T05:28:37.091Z,4.70
2023-04-19T05:29:37.939Z,4.70
2023-04-19T05:30:38.736Z,4.70
2023-04-19T05:31:39.601Z,4.70
2023-04-19T05:32:40.416Z,4.70
2023-04-19T05:33:41.219Z,4.70
2023-04-19T05:34:42.068Z,4.72
2023-04-19T05:35:42.882Z,4.72
2023-04-19T05:36:43.712Z,4.73
2023-04-19T05:37:44.564Z,4.75
2023-04-19T05:38:45.371Z,4.77
2023-04-19T05:39:46.218Z,4.75
2023-04-19T05:40:47.038Z,4.75
2023-04-19T05:41:47.903Z,4.78
2023-04-19T05:42:48.690Z,4.78
2023-04-19T05:43:49.526Z,4.82
2023-04-19T05:44:50.164Z,4.80
2023-04-19T05:45:51.018Z,4.80
2023-04-19T05:46:51.789Z,4.82
2023-04-19T05:47:52.705Z,4.82
2023-04-19T05:48:53.220Z,4.85
2023-04-19T05:49:54.051Z,4.86
2023-04-19T05:50:54.868Z,4.86
2023-04-19T05:51:55.739Z,4.89
2023-04-19T05:52:56.241Z,4.89
2023-04-19T05:53:57.525Z,4.92
2023-04-19T05:54:58.115Z,4.92
2023-04-19T05:55:58.899Z,4.96
2023-04-19T05:56:59.718Z,4.96
2023-04-19T05:58:00.549Z,4.97
2023-04-19T05:59:01.368Z,4.99
2023-04-19T06:00:02.793Z,5.02
2023-04-19T06:01:02.878Z,5.02
2023-04-19T06:02:03.856Z,5.03
2023-04-19T06:03:04.422Z,5.06
2023-04-19T06:04:04.953Z,5.06
2023-04-19T06:05:09.991Z,5.09
2023-04-19T06:06:07.162Z,5.09
2023-04-19T06:07:13.505Z,5.12
2023-04-19T06:08:08.750Z,5.13
2023-04-19T06:09:08.570Z,5.15
2023-04-19T06:10:09.414Z,5.17
2023-04-19T06:11:20.115Z,5.18
2023-04-19T06:12:11.939Z,5.21
2023-04-19T06:13:11.772Z,5.21
2023-04-19T06:14:12.586Z,5.24
2023-04-19T06:15:13.518Z,5.24
2023-04-19T06:16:14.449Z,5.25
2023-04-19T06:17:15.273Z,5.28
2023-04-19T06:18:19.317Z,5.28
2023-04-19T06:19:16.674Z,5.28
2023-04-19T06:20:17.487Z,5.33
2023-04-19T06:21:18.311Z,5.35
2023-04-19T06:22:19.137Z,5.35
2023-04-19T06:23:19.977Z,5.33
2023-04-19T06:24:20.782Z,5.38
2023-04-19T06:25:21.620Z,5.36
2023-04-19T06:26:22.438Z,5.36
2023-04-19T06:27:23.262Z,5.38
2023-04-19T06:28:24.085Z,5.38
2023-04-19T06:29:24.912Z,5.36
2023-04-19T06:30:25.781Z,5.35
2023-04-19T06:31:26.649Z,5.36
2023-04-19T06:32:27.496Z,5.36
2023-04-19T06:33:28.318Z,5.38
2023-04-19T06:34:29.127Z,5.39
2023-04-19T06:35:30.041Z,5.39
2023-04-19T06:36:30.858Z,5.40
2023-04-19T06:37:31.683Z,5.45
2023-04-19T06:38:32.567Z,5.43
2023-04-19T06:39:33.355Z,5.46
2023-04-19T06:40:34.186Z,5.48
2023-04-19T06:41:35.034Z,5.48
2023-04-19T06:42:35.836Z,5.48
2023-04-19T06:43:36.662Z,5.48
2023-04-19T06:44:37.495Z,5.49
2023-04-19T06:45:38.367Z,5.49
2023-04-19T06:46:39.151Z,5.53
2023-04-19T06:47:40.023Z,5.54
2023-04-19T06:48:40.853Z,5.56
2023-04-19T06:49:41.728Z,5.57
2023-04-19T06:50:42.559Z,5.60
2023-04-19T06:51:43.391Z,5.61
2023-04-19T06:52:44.201Z,5.63
2023-04-19T06:53:45.032Z,5.65
2023-04-19T06:54:45.855Z,5.67
2023-04-19T06:55:46.707Z,5.68
2023-04-19T06:56:47.530Z,5.75
2023-04-19T06:57:48.351Z,5.78
2023-04-19T06:58:49.176Z,5.79
2023-04-19T06:59:50.002Z,5.81
2023-04-19T07:00:51.065Z,5.85
2023-04-19T07:01:51.617Z,5.89
2023-04-19T07:02:52.213Z,5.91
2023-04-19T07:03:53.522Z,5.94
2023-04-19T07:04:53.472Z,5.96
2023-04-19T07:05:54.303Z,5.94
2023-04-19T07:06:55.128Z,5.97
2023-04-19T07:07:55.947Z,6.00
2023-04-19T07:08:56.790Z,6.01
2023-04-19T07:09:57.616Z,6.01
2023-04-19T07:10:58.466Z,6.06
2023-04-19T07:11:59.304Z,6.06
2023-04-19T07:13:00.128Z,6.08
2023-04-19T07:14:00.998Z,6.08
2023-04-19T07:15:01.772Z,6.12
2023-04-19T07:16:03.162Z,6.11
2023-04-19T07:17:03.521Z,6.14
2023-04-19T07:18:04.372Z,6.14
2023-04-19T07:19:05.180Z,6.15
2023-04-19T07:20:06.058Z,6.15
2023-04-19T07:21:06.874Z,6.17
2023-04-19T07:22:07.706Z,6.18
2023-04-19T07:23:08.536Z,6.19
2023-04-19T07:24:09.354Z,6.21
2023-04-19T07:25:10.173Z,6.27
2023-04-19T07:26:11.079Z,6.27
2023-04-19T07:27:11.857Z,6.27
2023-04-19T07:28:12.688Z,6.27
2023-04-19T07:29:13.519Z,6.28
2023-04-19T07:30:14.329Z,6.30
2023-04-19T07:31:15.230Z,6.30
2023-04-19T07:32:16.123Z,6.31
2023-04-19T07:33:17.013Z,6.34
2023-04-19T07:34:18.114Z,6.36
2023-04-19T07:35:18.614Z,6.36
2023-04-19T07:36:19.447Z,6.40
2023-04-19T07:37:20.292Z,6.40
2023-04-19T07:38:21.187Z,6.43
2023-04-19T07:39:21.957Z,6.46
2023-04-19T07:40:22.780Z,6.48
2023-04-19T07:41:23.639Z,6.49
2023-04-19T07:42:24.446Z,6.52
2023-04-19T07:43:25.281Z,6.54
2023-04-19T07:44:26.113Z,6.55
2023-04-19T07:45:26.941Z,6.55
2023-04-19T07:46:27.902Z,6.56
2023-04-19T07:47:28.753Z,6.58
2023-04-19T07:48:29.548Z,6.59
2023-04-19T07:49:30.391Z,6.61
2023-04-19T07:50:31.204Z,6.64
2023-04-19T07:51:32.064Z,6.62
2023-04-19T07:52:32.889Z,6.67
2023-04-19T07:53:33.713Z,6.71
2023-04-19T07:54:34.546Z,6.73
2023-04-19T07:55:35.369Z,6.76
2023-04-19T07:56:36.325Z,6.77
2023-04-19T07:57:37.098Z,6.79
2023-04-19T07:58:37.930Z,6.80
2023-04-19T07:59:38.821Z,6.80
2023-04-19T08:00:39.614Z,6.85
2023-04-19T08:01:40.686Z,6.84
2023-04-19T08:02:41.181Z,6.87
2023-04-19T08:03:41.845Z,6.91
2023-04-19T08:04:42.645Z,6.94
2023-04-19T08:05:43.321Z,6.97
2023-04-19T08:06:44.164Z,6.98
2023-04-19T08:07:44.998Z,7.02
2023-04-19T08:08:45.834Z,7.05
2023-04-19T08:09:46.692Z,7.07
2023-04-19T08:10:47.555Z,7.07
2023-04-19T08:11:48.352Z,7.09
2023-04-19T08:13:04.519Z,7.10
2023-04-19T08:14:00.726Z,7.13
2023-04-19T08:15:04.808Z,7.13
2023-04-19T08:16:27.141Z,7.15
2023-04-19T08:17:52.945Z,7.21
2023-04-19T08:18:53.759Z,7.21
2023-04-19T08:19:54.580Z,7.24
2023-04-19T08:20:55.431Z,7.23
2023-04-19T08:21:56.248Z,7.25
2023-04-19T08:22:59.085Z,7.27
2023-04-19T08:23:57.756Z,7.28
2023-04-19T08:24:58.592Z,7.30
2023-04-19T08:25:59.429Z,7.30
2023-04-19T08:27:00.358Z,7.31
2023-04-19T08:28:01.129Z,7.34
2023-04-19T08:29:01.953Z,7.35
2023-04-19T08:30:02.801Z,7.37
2023-04-19T08:31:03.661Z,7.37
2023-04-19T08:32:04.556Z,7.39
2023-04-19T08:33:05.384Z,7.42
2023-04-19T08:34:06.185Z,7.42
2023-04-19T08:35:07.011Z,7.46
2023-04-19T08:36:07.840Z,7.45
2023-04-19T08:37:08.680Z,7.48
2023-04-19T08:38:09.698Z,7.49
2023-04-19T08:39:29.262Z,7.50
2023-04-19T08:40:11.839Z,7.50
2023-04-19T08:41:11.673Z,7.52
2023-04-19T08:42:24.619Z,7.57
2023-04-19T08:43:14.228Z,7.55
2023-04-19T08:46:16.522Z,7.63
2023-04-19T08:47:27.039Z,7.64
2023-04-19T08:48:18.135Z,7.67
2023-04-19T08:49:18.143Z,7.68
2023-04-19T08:50:31.147Z,7.68
2023-04-19T08:51:20.329Z,7.67
2023-04-19T08:52:20.149Z,7.69
2023-04-19T08:53:25.797Z,7.71
2023-04-19T08:54:22.681Z,7.72
2023-04-19T08:55:22.524Z,7.75
2023-04-19T08:56:34.831Z,7.75
2023-04-19T08:57:25.059Z,7.74
2023-04-19T08:58:36.541Z,7.75
2023-04-19T08:59:26.590Z,7.75
2023-04-19T09:00:26.438Z,7.75
2023-04-19T09:01:35.373Z,7.75
2023-04-19T09:02:29.382Z,7.75
2023-04-19T09:03:29.098Z,7.75
2023-04-19T09:04:36.985Z,7.74
2023-04-19T09:05:31.479Z,7.75
2023-04-19T09:06:30.964Z,7.75
2023-04-19T09:07:31.798Z,7.74
2023-04-19T09:08:32.618Z,7.77
2023-04-19T09:09:39.039Z,7.77
2023-04-19T09:10:35.157Z,7.79
2023-04-19T09:11:34.992Z,7.80
2023-04-19T09:12:35.809Z,7.80
2023-04-19T09:13:36.660Z,7.80
2023-04-19T09:14:38.243Z,7.79
2023-04-19T09:15:38.252Z,7.80
2023-04-19T09:16:39.176Z,7.82
2023-04-19T09:17:40.138Z,7.82
2023-04-19T09:18:53.376Z,7.83
2023-04-19T09:19:42.651Z,7.83
2023-04-19T09:20:42.472Z,7.86
2023-04-19T09:21:43.301Z,7.86
2023-04-19T09:22:44.129Z,7.86
2023-04-19T09:23:44.957Z,7.87
2023-04-19T09:25:19.062Z,7.89
2023-04-19T09:26:48.212Z,7.92
2023-04-19T09:27:48.039Z,7.92
2023-04-19T09:28:48.856Z,7.93
2023-04-19T09:29:49.682Z,7.93
2023-04-19T09:30:58.661Z,7.93
2023-04-19T09:31:52.547Z,7.93
2023-04-19T09:32:52.031Z,7.92
2023-04-19T09:33:52.398Z,7.90
2023-04-19T09:34:53.276Z,7.90
2023-04-19T09:35:54.092Z,7.92
2023-04-19T09:37:08.454Z,7.90
2023-04-19T09:38:04.842Z,7.90
2023-04-19T09:38:57.348Z,7.92
2023-04-19T09:39:57.199Z,7.92
2023-04-19T09:40:57.994Z,7.92
2023-04-19T09:41:58.841Z,7.93
2023-04-19T09:43:11.145Z,7.95
2023-04-19T09:44:15.581Z,7.97
2023-04-19T09:45:28.246Z,7.98
2023-04-19T09:46:02.829Z,7.97
2023-04-19T09:47:02.815Z,8.01
2023-04-19T09:48:03.804Z,7.98
2023-04-19T09:49:09.449Z,8.01
2023-04-19T09:50:18.851Z,8.00
2023-04-19T09:51:10.053Z,8.01
2023-04-19T09:52:07.057Z,8.00
2023-04-19T09:53:06.868Z,8.00
2023-04-19T09:54:07.698Z,8.01
2023-04-19T09:55:17.810Z,8.00
2023-04-19T09:56:10.241Z,7.98
2023-04-19T09:57:10.068Z,7.98
2023-04-19T09:58:10.899Z,8.00
2023-04-19T09:59:20.323Z,7.98
2023-04-19T10:00:13.424Z,8.01
2023-04-19T10:01:15.428Z,8.01
2023-04-19T10:02:14.009Z,8.01
2023-04-19T10:03:15.050Z,8.04
2023-04-19T10:04:26.260Z,8.04
2023-04-19T10:05:22.343Z,8.07
2023-04-19T10:07:29.182Z,8.10
2023-04-19T10:08:19.113Z,8.11
2023-04-19T10:09:18.928Z,8.15
2023-04-19T10:10:21.434Z,8.16
2023-04-19T10:11:20.345Z,8.16
2023-04-19T10:12:45.604Z,8.18
2023-04-19T10:13:25.710Z,8.20
2023-04-19T10:14:22.506Z,8.20
2023-04-19T10:15:23.322Z,8.20
2023-04-19T10:16:24.176Z,8.23
2023-04-19T10:17:25.072Z,8.26
2023-04-19T10:18:25.932Z,8.28
2023-04-19T10:19:26.722Z,8.28
2023-04-19T10:20:27.565Z,8.33
2023-04-19T10:21:28.387Z,8.33
2023-04-19T10:22:29.232Z,8.33
2023-04-19T10:23:30.070Z,8.36
2023-04-19T10:24:30.888Z,8.37
2023-04-19T10:25:31.717Z,8.40
2023-04-19T10:26:32.556Z,8.40
2023-04-19T10:27:33.386Z,8.43
2023-04-19T10:28:34.225Z,8.41
2023-04-19T10:29:35.039Z,8.43
2023-04-19T10:30:35.858Z,8.45
2023-04-19T10:31:36.709Z,8.47
2023-04-19T10:32:37.655Z,8.48
2023-04-19T10:33:38.577Z,8.50
2023-04-19T10:34:39.394Z,8.50
2023-04-19T10:35:40.175Z,8.55
2023-04-19T10:36:40.994Z,8.55
2023-04-19T10:37:41.829Z,8.56
2023-04-19T10:38:42.670Z,8.58
2023-04-19T10:39:43.487Z,8.59
2023-04-19T10:40:44.342Z,8.58
2023-04-19T10:41:45.169Z,8.59
2023-04-19T10:42:46.005Z,8.59
2023-04-19T10:43:46.829Z,8.61
2023-04-19T10:44:47.651Z,8.59
2023-04-19T10:45:48.653Z,8.59
2023-04-19T10:46:48.994Z,8.56
2023-04-19T10:47:49.855Z,8.55
2023-04-19T10:48:50.703Z,8.50
2023-04-19T10:49:51.486Z,8.48
2023-04-19T10:50:52.333Z,8.43
2023-04-19T10:51:53.160Z,8.40
2023-04-19T10:52:53.983Z,8.37
2023-04-19T10:53:54.808Z,8.37
2023-04-19T10:54:55.637Z,8.34
2023-04-19T10:55:56.452Z,8.30
2023-04-19T10:56:57.302Z,8.30
2023-04-19T10:57:58.110Z,8.28
2023-04-19T10:58:58.929Z,8.25
2023-04-19T10:59:59.767Z,8.26
2023-04-19T11:01:00.594Z,8.23
2023-04-19T11:02:01.569Z,8.26
2023-04-19T11:03:02.049Z,8.23
2023-04-19T11:04:02.697Z,8.26
2023-04-19T11:05:03.162Z,8.22
2023-04-19T11:06:03.988Z,8.22
2023-04-19T11:07:04.816Z,8.22
2023-04-19T11:08:05.646Z,8.22
2023-04-19T11:09:06.472Z,8.18
2023-04-19T11:10:07.301Z,8.15
2023-04-19T11:11:08.109Z,8.12
2023-04-19T11:12:08.939Z,8.12
2023-04-19T11:13:09.764Z,8.15
2023-04-19T11:14:10.588Z,8.12
2023-04-19T11:15:11.420Z,8.15
2023-04-19T11:16:12.262Z,8.16
2023-04-19T11:17:13.059Z,8.15
2023-04-19T11:18:13.914Z,8.15
2023-04-19T11:19:15.191Z,8.16
2023-04-19T11:20:15.658Z,8.12
2023-04-19T11:21:16.493Z,8.12
2023-04-19T11:22:17.316Z,8.11
2023-04-19T11:23:18.139Z,8.15
2023-04-19T11:24:19.058Z,8.15
2023-04-19T11:25:19.904Z,8.16
2023-04-19T11:26:20.716Z,8.16
2023-04-19T11:27:21.565Z,8.18
2023-04-19T11:28:22.372Z,8.18
2023-04-19T11:29:23.213Z,8.19
2023-04-19T11:30:24.028Z,8.19
2023-04-19T11:31:24.865Z,8.19
2023-04-19T11:32:25.883Z,8.19
2023-04-19T11:33:26.215Z,8.19
2023-04-19T11:34:27.055Z,8.19
2023-04-19T11:35:27.856Z,8.20
2023-04-19T11:36:28.680Z,8.18
2023-04-19T11:37:29.508Z,8.19
2023-04-19T11:38:30.347Z,8.19
2023-04-19T11:39:31.163Z,8.19
2023-04-19T11:40:31.978Z,8.18
2023-04-19T11:41:32.797Z,8.19
2023-04-19T11:42:33.658Z,8.19
2023-04-19T11:43:34.572Z,8.18
2023-04-19T11:44:35.408Z,8.18
2023-04-19T11:45:39.182Z,8.19
2023-04-19T11:46:37.043Z,8.18
2023-04-19T11:47:37.919Z,8.16
2023-04-19T11:48:38.709Z,8.16
2023-04-19T11:49:39.674Z,8.16
2023-04-19T11:50:40.429Z,8.18
2023-04-19T11:51:41.269Z,8.15
2023-04-19T11:52:42.093Z,8.18
2023-04-19T11:53:42.907Z,8.18
2023-04-19T11:54:43.749Z,8.18
2023-04-19T11:55:44.558Z,8.18
2023-04-19T11:56:45.398Z,8.18
2023-04-19T11:57:46.250Z,8.18
2023-04-19T11:58:47.093Z,8.19
2023-04-19T11:59:47.881Z,8.19
2023-04-19T12:00:48.704Z,8.18
2023-04-19T12:01:49.533Z,8.20
2023-04-19T12:02:50.558Z,8.19
2023-04-19T12:03:51.266Z,8.20
2023-04-19T12:04:52.095Z,8.19
2023-04-19T12:05:52.558Z,8.20
2023-04-19T12:06:53.021Z,8.18
2023-04-19T12:07:53.861Z,8.15
2023-04-19T12:08:54.695Z,8.12
2023-04-19T12:09:55.525Z,8.12
2023-04-19T12:10:56.338Z,8.11
2023-04-19T12:11:57.166Z,8.12
2023-04-19T12:12:58.010Z,8.12
2023-04-19T12:13:58.834Z,8.12
2023-04-19T12:14:59.647Z,8.15
2023-04-19T12:16:00.486Z,8.12
2023-04-19T12:17:01.384Z,8.15
2023-04-19T12:18:02.478Z,8.12
2023-04-19T12:19:02.833Z,8.12
2023-04-19T12:20:03.659Z,8.12
2023-04-19T12:21:04.460Z,8.11
2023-04-19T12:22:05.300Z,8.11
2023-04-19T12:23:06.129Z,8.08
2023-04-19T12:24:06.963Z,8.08
2023-04-19T12:25:07.770Z,8.10
2023-04-19T12:26:08.605Z,8.10
2023-04-19T12:27:09.424Z,8.10
2023-04-19T12:28:10.167Z,8.08
2023-04-19T12:29:11.029Z,8.08
2023-04-19T12:30:11.856Z,8.08
2023-04-19T12:31:12.681Z,8.08
2023-04-19T12:32:13.526Z,8.10
2023-04-19T12:33:14.377Z,8.10
2023-04-19T12:34:15.180Z,8.11
2023-04-19T12:35:16.129Z,8.12
2023-04-19T12:36:16.931Z,8.15
2023-04-19T12:37:17.745Z,8.15
2023-04-19T12:38:18.571Z,8.16
2023-04-19T12:39:19.414Z,8.16
2023-04-19T12:40:20.231Z,8.16
2023-04-19T12:41:21.054Z,8.18
2023-04-19T12:42:21.857Z,8.16
2023-04-19T12:43:22.695Z,8.15
2023-04-19T12:44:23.524Z,8.15
2023-04-19T12:45:24.399Z,8.16
2023-04-19T12:46:25.289Z,8.15
2023-04-19T12:47:26.139Z,8.16
2023-04-19T12:48:26.936Z,8.16
2023-04-19T12:49:27.761Z,8.16
2023-04-19T12:50:28.675Z,8.16
2023-04-19T12:51:29.434Z,8.16
2023-04-19T12:52:30.267Z,8.18
2023-04-19T12:53:31.098Z,8.15
2023-04-19T12:54:31.905Z,8.15
2023-04-19T12:55:32.732Z,8.12
2023-04-19T12:56:33.552Z,8.15
2023-04-19T12:57:34.374Z,8.15
2023-04-19T12:58:35.229Z,8.15
2023-04-19T12:59:36.041Z,8.11
2023-04-19T13:00:36.862Z,8.08
2023-04-19T13:01:37.701Z,8.07
2023-04-19T13:02:38.769Z,8.02
2023-04-19T13:03:39.317Z,8.02
2023-04-19T13:04:39.812Z,8.00
2023-04-19T13:05:40.679Z,7.97
2023-04-19T13:06:41.468Z,7.93
2023-04-19T13:07:42.296Z,7.95
2023-04-19T13:08:46.977Z,7.93
2023-04-19T13:09:43.633Z,7.98
2023-04-19T13:10:44.459Z,7.97
2023-04-19T13:11:45.276Z,7.95
2023-04-19T13:12:46.111Z,7.95
2023-04-19T13:13:47.004Z,7.93
2023-04-19T13:14:47.831Z,7.95
2023-04-19T13:15:48.690Z,7.95
2023-04-19T13:16:49.484Z,7.93
2023-04-19T13:17:50.346Z,7.93
2023-04-19T13:18:51.154Z,7.95
2023-04-19T13:19:51.986Z,7.92
2023-04-19T13:20:52.825Z,7.90
2023-04-19T13:21:53.631Z,7.92
2023-04-19T13:22:54.471Z,7.92
2023-04-19T13:23:55.301Z,7.90
2023-04-19T13:24:56.127Z,7.89
2023-04-19T13:25:56.956Z,7.89
2023-04-19T13:26:57.838Z,7.90
2023-04-19T13:27:58.623Z,7.89
2023-04-19T13:28:59.448Z,7.92
2023-04-19T13:30:00.278Z,7.92
2023-04-19T13:31:01.120Z,7.92
2023-04-19T13:32:01.940Z,7.89
2023-04-19T13:33:02.810Z,7.89
2023-04-19T13:34:03.588Z,7.90
2023-04-19T13:35:04.409Z,7.92